TVF82DG LFPO-LIRF
Flight info
| Callsign | TVF82DG |
|---|---|
| Flight time | N/A |
| Altitude | 37000 |
| Route | OKASI DCT OKEKO DCT MOU DCT MADIV DCT MOKIP DCT TUFTA DCT KOGAS DCT MEDAM DCT NITAM DCT MOGBO DCT ELB/N0440F380 DCT ELKAP |
| Aircraft | A320/M-SDE3FGHIRWY/LB1 |
Departure
| Time | N/A |
|---|---|
| Airport | Paris-Orly Airport (LFPO) |
Arrival
| Time | 2026-05-05 18:58 |
|---|---|
| Airport | Rome–Fiumicino Leonardo da Vinci International Airport (LIRF) |
| Time | Latitude | Longitude | Altitude | Speed | Heading |
|---|---|---|---|---|---|
| 2026-05-05 18:32 | 42.48216 | 11.16319 | 29691 ft | 462 kts | 127° |
| 2026-05-05 18:32 | 42.46526 | 11.19956 | 28722 ft | 453 kts | 127° |
| 2026-05-05 18:33 | 42.44928 | 11.23603 | 27717 ft | 449 kts | 119° |
| 2026-05-05 18:33 | 42.43876 | 11.27557 | 26813 ft | 445 kts | 105° |
| 2026-05-05 18:33 | 42.43358 | 11.31653 | 25926 ft | 439 kts | 101° |
| 2026-05-05 18:33 | 42.42905 | 11.35704 | 25075 ft | 430 kts | 101° |
| 2026-05-05 18:34 | 42.42464 | 11.39672 | 24283 ft | 421 kts | 101° |
| 2026-05-05 18:34 | 42.42031 | 11.43550 | 23598 ft | 411 kts | 101° |
| 2026-05-05 18:34 | 42.41612 | 11.47316 | 22788 ft | 401 kts | 101° |
| 2026-05-05 18:34 | 42.41197 | 11.51018 | 21916 ft | 394 kts | 102° |
| 2026-05-05 18:35 | 42.40768 | 11.53382 | 21421 ft | 384 kts | 115° |
| 2026-05-05 18:35 | 42.39554 | 11.56443 | 21083 ft | 358 kts | 131° |
| 2026-05-05 18:35 | 42.37881 | 11.58804 | 20463 ft | 342 kts | 147° |
| 2026-05-05 18:35 | 42.35870 | 11.60383 | 19757 ft | 330 kts | 163° |
| 2026-05-05 18:36 | 42.33721 | 11.61392 | 19032 ft | 325 kts | 166° |
| 2026-05-05 18:36 | 42.31587 | 11.62376 | 18335 ft | 323 kts | 165° |
| 2026-05-05 18:36 | 42.29472 | 11.63357 | 17636 ft | 318 kts | 165° |
| 2026-05-05 18:36 | 42.27442 | 11.64308 | 17387 ft | 300 kts | 165° |
| 2026-05-05 18:37 | 42.25498 | 11.65218 | 16880 ft | 293 kts | 166° |
| 2026-05-05 18:37 | 42.23576 | 11.66072 | 16291 ft | 290 kts | 167° |
| 2026-05-05 18:37 | 42.21661 | 11.66891 | 15705 ft | 287 kts | 167° |
| 2026-05-05 18:37 | 42.19763 | 11.67694 | 15137 ft | 285 kts | 167° |
| 2026-05-05 18:38 | 42.17880 | 11.68492 | 14591 ft | 283 kts | 167° |
| 2026-05-05 18:38 | 42.16009 | 11.69285 | 14080 ft | 281 kts | 167° |
| 2026-05-05 18:38 | 42.14153 | 11.70073 | 13550 ft | 279 kts | 167° |
| 2026-05-05 18:38 | 42.12295 | 11.70864 | 13172 ft | 279 kts | 167° |
| 2026-05-05 18:39 | 42.10453 | 11.71655 | 12870 ft | 276 kts | 167° |
| 2026-05-05 18:39 | 42.08629 | 11.72439 | 12550 ft | 275 kts | 166° |
| 2026-05-05 18:39 | 42.06913 | 11.73559 | 12246 ft | 278 kts | 142° |
| 2026-05-05 18:39 | 42.05839 | 11.75683 | 12095 ft | 277 kts | 109° |
| 2026-05-05 18:40 | 42.05736 | 11.78246 | 11795 ft | 279 kts | 77° |
| 2026-05-05 18:40 | 42.06298 | 11.80749 | 11419 ft | 280 kts | 73° |
| 2026-05-05 18:40 | 42.06899 | 11.83238 | 11103 ft | 279 kts | 73° |
| 2026-05-05 18:40 | 42.07716 | 11.85585 | 10813 ft | 276 kts | 50° |
| 2026-05-05 18:41 | 42.09181 | 11.87177 | 10494 ft | 270 kts | 21° |
| 2026-05-05 18:41 | 42.10979 | 11.87698 | 10160 ft | 263 kts | 353° |
| 2026-05-05 18:41 | 42.12735 | 11.87188 | 9786 ft | 259 kts | 338° |
| 2026-05-05 18:41 | 42.14454 | 11.86442 | 9367 ft | 259 kts | 338° |
| 2026-05-05 18:42 | 42.16171 | 11.85701 | 8968 ft | 259 kts | 339° |
| 2026-05-05 18:42 | 42.17885 | 11.84964 | 8586 ft | 258 kts | 339° |
| 2026-05-05 18:42 | 42.19592 | 11.84235 | 8219 ft | 257 kts | 339° |
| 2026-05-05 18:42 | 42.21297 | 11.83505 | 7844 ft | 256 kts | 339° |
| 2026-05-05 18:43 | 42.22994 | 11.82777 | 7475 ft | 255 kts | 340° |
| 2026-05-05 18:43 | 42.24682 | 11.82055 | 7107 ft | 255 kts | 340° |
| 2026-05-05 18:43 | 42.26369 | 11.81331 | 6958 ft | 255 kts | 339° |
| 2026-05-05 18:43 | 42.28056 | 11.80605 | 6830 ft | 254 kts | 339° |
| 2026-05-05 18:44 | 42.29778 | 11.80058 | 6709 ft | 257 kts | 358° |
| 2026-05-05 18:44 | 42.31505 | 11.80594 | 6588 ft | 258 kts | 30° |
| 2026-05-05 18:44 | 42.32808 | 11.82213 | 6462 ft | 258 kts | 61° |
| 2026-05-05 18:44 | 42.33459 | 11.84441 | 6346 ft | 254 kts | 75° |
| 2026-05-05 18:45 | 42.33986 | 11.86723 | 6218 ft | 255 kts | 75° |
| 2026-05-05 18:45 | 42.34520 | 11.89004 | 6101 ft | 254 kts | 74° |
| 2026-05-05 18:45 | 42.34861 | 11.91311 | 6044 ft | 247 kts | 98° |
| 2026-05-05 18:45 | 42.34396 | 11.93380 | 6049 ft | 219 kts | 129° |
| 2026-05-05 18:46 | 42.33340 | 11.94767 | 6054 ft | 212 kts | 155° |
| 2026-05-05 18:46 | 42.31987 | 11.95441 | 6060 ft | 201 kts | 167° |
| 2026-05-05 18:46 | 42.30697 | 11.95978 | 6058 ft | 190 kts | 166° |
| 2026-05-05 18:46 | 42.29433 | 11.96511 | 6054 ft | 190 kts | 166° |
| 2026-05-05 18:47 | 42.28171 | 11.97047 | 6055 ft | 191 kts | 166° |
| 2026-05-05 18:47 | 42.26908 | 11.97585 | 6055 ft | 190 kts | 166° |
| 2026-05-05 18:47 | 42.25639 | 11.98126 | 6043 ft | 191 kts | 166° |
| 2026-05-05 18:47 | 42.24374 | 11.98667 | 5952 ft | 189 kts | 166° |
| 2026-05-05 18:48 | 42.23120 | 11.99204 | 5824 ft | 189 kts | 166° |
| 2026-05-05 18:48 | 42.21874 | 11.99735 | 5691 ft | 187 kts | 166° |
| 2026-05-05 18:48 | 42.20634 | 12.00263 | 5558 ft | 187 kts | 166° |
| 2026-05-05 18:48 | 42.19391 | 12.00790 | 5430 ft | 187 kts | 165° |
| 2026-05-05 18:49 | 42.18156 | 12.01316 | 5292 ft | 186 kts | 165° |
| 2026-05-05 18:49 | 42.16923 | 12.01842 | 5170 ft | 186 kts | 165° |
| 2026-05-05 18:49 | 42.15690 | 12.02366 | 5037 ft | 186 kts | 165° |
| 2026-05-05 18:49 | 42.14459 | 12.02892 | 4904 ft | 186 kts | 165° |
| 2026-05-05 18:50 | 42.13232 | 12.03420 | 4767 ft | 184 kts | 165° |
| 2026-05-05 18:50 | 42.12042 | 12.04049 | 4639 ft | 186 kts | 153° |
| 2026-05-05 18:50 | 42.11040 | 12.05158 | 4501 ft | 189 kts | 136° |
| 2026-05-05 18:50 | 42.10160 | 12.06478 | 4369 ft | 189 kts | 136° |
| 2026-05-05 18:51 | 42.09277 | 12.07781 | 4233 ft | 188 kts | 136° |
| 2026-05-05 18:51 | 42.08397 | 12.09073 | 4098 ft | 187 kts | 136° |
| 2026-05-05 18:51 | 42.07517 | 12.10360 | 3962 ft | 186 kts | 136° |
| 2026-05-05 18:51 | 42.06641 | 12.11638 | 3839 ft | 185 kts | 136° |
| 2026-05-05 18:52 | 42.05773 | 12.12905 | 3697 ft | 183 kts | 136° |
| 2026-05-05 18:52 | 42.04908 | 12.14166 | 3577 ft | 183 kts | 136° |
| 2026-05-05 18:52 | 42.04047 | 12.15422 | 3438 ft | 183 kts | 136° |
| 2026-05-05 18:52 | 42.03185 | 12.16677 | 3305 ft | 182 kts | 136° |
| 2026-05-05 18:53 | 42.02329 | 12.17928 | 3176 ft | 182 kts | 136° |
| 2026-05-05 18:53 | 42.01369 | 12.18997 | 3094 ft | 178 kts | 153° |
| 2026-05-05 18:53 | 42.00227 | 12.19600 | 3038 ft | 176 kts | 165° |
| 2026-05-05 18:53 | 41.99053 | 12.20078 | 3035 ft | 177 kts | 165° |
| 2026-05-05 18:54 | 41.97877 | 12.20570 | 2839 ft | 175 kts | 165° |
| 2026-05-05 18:54 | 41.96721 | 12.21057 | 2577 ft | 173 kts | 165° |
| 2026-05-05 18:54 | 41.95577 | 12.21538 | 2345 ft | 172 kts | 165° |
| 2026-05-05 18:54 | 41.94449 | 12.22013 | 2126 ft | 165 kts | 164° |
| 2026-05-05 18:55 | 41.93404 | 12.22454 | 1916 ft | 150 kts | 164° |
| 2026-05-05 18:55 | 41.92465 | 12.22848 | 1733 ft | 136 kts | 164° |
| 2026-05-05 18:55 | 41.91561 | 12.23227 | 1519 ft | 136 kts | 164° |
| 2026-05-05 18:55 | 41.90662 | 12.23604 | 1342 ft | 135 kts | 163° |
| 2026-05-05 18:56 | 41.89773 | 12.23977 | 1159 ft | 135 kts | 163° |
| 2026-05-05 18:56 | 41.88868 | 12.24356 | 948 ft | 135 kts | 164° |
| 2026-05-05 18:56 | 41.87967 | 12.24719 | 674 ft | 135 kts | 163° |
| 2026-05-05 18:56 | 41.87073 | 12.25130 | 496 ft | 136 kts | 161° |
| 2026-05-05 18:57 | 41.86173 | 12.25490 | 408 ft | 136 kts | 163° |
| 2026-05-05 18:57 | 41.85271 | 12.25858 | 220 ft | 137 kts | 161° |
| 2026-05-05 18:57 | 41.84374 | 12.26243 | 38 ft | 135 kts | 160° |
| 2026-05-05 18:57 | 41.83599 | 12.26590 | 22 ft | 93 kts | 162° |
| 2026-05-05 18:58 | 41.83145 | 12.26786 | 20 ft | 44 kts | 162° |
| 2026-05-05 18:58 | 41.82957 | 12.26835 | 22 ft | 24 kts | 172° |
| 2026-05-05 18:58 | 41.82794 | 12.26877 | 25 ft | 24 kts | 173° |
| 2026-05-05 18:58 | 41.82624 | 12.26852 | 20 ft | 26 kts | 201° |
| 2026-05-05 18:59 | 41.82499 | 12.26810 | 18 ft | 17 kts | 192° |
| 2026-05-05 18:59 | 41.82372 | 12.26784 | 17 ft | 20 kts | 175° |
| 2026-05-05 18:59 | 41.82226 | 12.26824 | 15 ft | 23 kts | 164° |
| 2026-05-05 18:59 | 41.82069 | 12.26883 | 15 ft | 24 kts | 161° |
| 2026-05-05 19:00 | 41.81917 | 12.26948 | 16 ft | 21 kts | 164° |
| 2026-05-05 19:00 | 41.81774 | 12.26929 | 18 ft | 21 kts | 192° |
| 2026-05-05 19:00 | 41.81652 | 12.26923 | 21 ft | 17 kts | 166° |
| 2026-05-05 19:00 | 41.81535 | 12.26972 | 20 ft | 20 kts | 162° |
| 2026-05-05 19:01 | 41.81385 | 12.27040 | 20 ft | 24 kts | 161° |
| 2026-05-05 19:01 | 41.81215 | 12.27105 | 17 ft | 26 kts | 162° |
| 2026-05-05 19:01 | 41.81036 | 12.27185 | 15 ft | 28 kts | 165° |
| 2026-05-05 19:01 | 41.80877 | 12.27220 | 11 ft | 23 kts | 192° |
| 2026-05-05 19:02 | 41.80763 | 12.27101 | 12 ft | 22 kts | 256° |
| 2026-05-05 19:02 | 41.80691 | 12.27053 | 12 ft | 12 kts | 187° |
| 2026-05-05 19:02 | 41.80586 | 12.26989 | 15 ft | 18 kts | 256° |
| 2026-05-05 19:02 | 41.80546 | 12.26837 | 15 ft | 20 kts | 249° |
| 2026-05-05 19:03 | 41.80484 | 12.26626 | 16 ft | 26 kts | 249° |
| 2026-05-05 19:03 | 41.80436 | 12.26453 | 15 ft | 0 kts | 251° |
| 2026-05-05 19:03 | 41.80435 | 12.26450 | 15 ft | 0 kts | 251° |
| 2026-05-05 19:03 | 41.80409 | 12.26389 | 16 ft | 15 kts | 233° |
| 2026-05-05 19:04 | 41.80396 | 12.26280 | 15 ft | 11 kts | 252° |
| 2026-05-05 19:04 | 41.80367 | 12.26191 | 17 ft | 13 kts | 248° |
| 2026-05-05 19:04 | 41.80284 | 12.26076 | 15 ft | 22 kts | 202° |
| 2026-05-05 19:04 | 41.80135 | 12.25987 | 17 ft | 24 kts | 206° |
| 2026-05-05 19:05 | 41.79981 | 12.25893 | 18 ft | 25 kts | 204° |
| 2026-05-05 19:05 | 41.79833 | 12.25791 | 18 ft | 14 kts | 207° |
| 2026-05-05 19:05 | 41.79804 | 12.25721 | 18 ft | 7 kts | 285° |
| 2026-05-05 19:05 | 41.79811 | 12.25677 | 18 ft | 1 kts | 277° |
| 2026-05-05 19:06 | 41.79811 | 12.25676 | 18 ft | 0 kts | 271° |